sensor_id;sensor_type;location;lat;lon;timestamp;P1;durP1;ratioP1;P2;durP2;ratioP2
24277;SDS011;12394;42.692;23.314;2024-01-10T00:01:12;7.50;;;3.27;;
24277;SDS011;12394;42.692;23.314;2024-01-10T00:03:37;4.57;;;3.03;;
24277;SDS011;12394;42.692;23.314;2024-01-10T00:06:03;10.30;;;2.80;;
24277;SDS011;12394;42.692;23.314;2024-01-10T00:08:28;4.80;;;2.90;;
24277;SDS011;12394;42.692;23.314;2024-01-10T00:10:54;5.10;;;3.40;;
24277;SDS011;12394;42.692;23.314;2024-01-10T00:13:20;7.17;;;3.27;;
24277;SDS011;12394;42.692;23.314;2024-01-10T00:15:47;4.77;;;3.20;;
24277;SDS011;12394;42.692;23.314;2024-01-10T00:18:13;5.77;;;3.43;;
24277;SDS011;12394;42.692;23.314;2024-01-10T00:20:39;4.37;;;3.40;;
24277;SDS011;12394;42.692;23.314;2024-01-10T00:23:05;4.47;;;3.03;;
24277;SDS011;12394;42.692;23.314;2024-01-10T00:25:34;6.10;;;3.33;;
24277;SDS011;12394;42.692;23.314;2024-01-10T00:27:59;5.57;;;3.60;;
24277;SDS011;12394;42.692;23.314;2024-01-10T00:30:25;6.20;;;3.37;;
24277;SDS011;12394;42.692;23.314;2024-01-10T00:32:51;6.90;;;3.30;;
24277;SDS011;12394;42.692;23.314;2024-01-10T00:35:16;7.43;;;3.80;;
24277;SDS011;12394;42.692;23.314;2024-01-10T00:37:42;6.03;;;3.27;;
24277;SDS011;12394;42.692;23.314;2024-01-10T00:40:07;3.87;;;2.73;;
24277;SDS011;12394;42.692;23.314;2024-01-10T00:42:34;5.47;;;3.20;;
24277;SDS011;12394;42.692;23.314;2024-01-10T00:44:59;9.43;;;4.00;;
24277;SDS011;12394;42.692;23.314;2024-01-10T00:47:25;6.63;;;3.87;;
24277;SDS011;12394;42.692;23.314;2024-01-10T00:49:50;3.97;;;3.03;;
24277;SDS011;12394;42.692;23.314;2024-01-10T00:52:16;4.70;;;3.07;;
24277;SDS011;12394;42.692;23.314;2024-01-10T00:54:41;9.10;;;3.80;;
24277;SDS011;12394;42.692;23.314;2024-01-10T00:57:09;5.03;;;3.33;;
24277;SDS011;12394;42.692;23.314;2024-01-10T00:59:34;5.87;;;3.27;;
24277;SDS011;12394;42.692;23.314;2024-01-10T01:02:00;5.33;;;3.33;;
24277;SDS011;12394;42.692;23.314;2024-01-10T01:04:25;10.83;;;3.87;;
24277;SDS011;12394;42.692;23.314;2024-01-10T01:06:51;5.50;;;3.87;;
24277;SDS011;12394;42.692;23.314;2024-01-10T01:09:16;4.80;;;3.40;;
24277;SDS011;12394;42.692;23.314;2024-01-10T01:11:42;5.60;;;3.43;;
24277;SDS011;12394;42.692;23.314;2024-01-10T01:14:07;10.87;;;3.10;;
24277;SDS011;12394;42.692;23.314;2024-01-10T01:16:33;5.33;;;2.90;;
24277;SDS011;12394;42.692;23.314;2024-01-10T01:18:58;3.73;;;2.73;;
24277;SDS011;12394;42.692;23.314;2024-01-10T01:21:24;5.90;;;2.93;;
24277;SDS011;12394;42.692;23.314;2024-01-10T01:23:49;5.90;;;3.50;;
24277;SDS011;12394;42.692;23.314;2024-01-10T01:26:15;7.07;;;3.03;;
24277;SDS011;12394;42.692;23.314;2024-01-10T01:28:40;5.00;;;3.17;;
24277;SDS011;12394;42.692;23.314;2024-01-10T01:31:06;4.57;;;2.80;;
24277;SDS011;12394;42.692;23.314;2024-01-10T01:33:31;5.53;;;3.87;;
24277;SDS011;12394;42.692;23.314;2024-01-10T01:35:57;5.80;;;3.83;;
24277;SDS011;12394;42.692;23.314;2024-01-10T01:38:23;5.80;;;3.60;;
24277;SDS011;12394;42.692;23.314;2024-01-10T01:40:49;4.70;;;3.47;;
24277;SDS011;12394;42.692;23.314;2024-01-10T01:43:21;5.57;;;3.73;;
24277;SDS011;12394;42.692;23.314;2024-01-10T01:45:52;5.73;;;3.87;;
24277;SDS011;12394;42.692;23.314;2024-01-10T01:48:22;7.50;;;4.47;;
24277;SDS011;12394;42.692;23.314;2024-01-10T01:50:49;8.73;;;4.27;;
24277;SDS011;12394;42.692;23.314;2024-01-10T01:53:17;6.63;;;3.87;;
24277;SDS011;12394;42.692;23.314;2024-01-10T01:55:44;7.73;;;4.60;;
24277;SDS011;12394;42.692;23.314;2024-01-10T01:58:10;5.57;;;4.33;;
24277;SDS011;12394;42.692;23.314;2024-01-10T02:00:37;7.33;;;3.50;;
24277;SDS011;12394;42.692;23.314;2024-01-10T02:03:04;4.43;;;3.30;;
24277;SDS011;12394;42.692;23.314;2024-01-10T02:05:30;8.87;;;4.20;;
24277;SDS011;12394;42.692;23.314;2024-01-10T02:07:55;6.30;;;4.10;;
24277;SDS011;12394;42.692;23.314;2024-01-10T02:10:21;4.73;;;3.77;;
24277;SDS011;12394;42.692;23.314;2024-01-10T02:12:48;5.57;;;3.40;;
24277;SDS011;12394;42.692;23.314;2024-01-10T02:15:13;5.00;;;3.43;;
24277;SDS011;12394;42.692;23.314;2024-01-10T02:17:39;5.73;;;3.70;;
24277;SDS011;12394;42.692;23.314;2024-01-10T02:20:11;5.10;;;3.73;;
24277;SDS011;12394;42.692;23.314;2024-01-10T02:22:38;6.10;;;3.50;;
24277;SDS011;12394;42.692;23.314;2024-01-10T02:25:05;5.90;;;2.60;;
24277;SDS011;12394;42.692;23.314;2024-01-10T02:27:32;4.10;;;3.00;;
24277;SDS011;12394;42.692;23.314;2024-01-10T02:29:59;5.10;;;3.17;;
24277;SDS011;12394;42.692;23.314;2024-01-10T02:32:30;3.37;;;2.50;;
24277;SDS011;12394;42.692;23.314;2024-01-10T02:34:56;5.43;;;2.33;;
24277;SDS011;12394;42.692;23.314;2024-01-10T02:37:22;6.90;;;2.50;;
24277;SDS011;12394;42.692;23.314;2024-01-10T02:39:47;5.67;;;2.80;;
24277;SDS011;12394;42.692;23.314;2024-01-10T02:42:13;4.17;;;2.97;;
24277;SDS011;12394;42.692;23.314;2024-01-10T02:44:39;4.07;;;2.73;;
24277;SDS011;12394;42.692;23.314;2024-01-10T02:47:05;3.67;;;2.93;;
24277;SDS011;12394;42.692;23.314;2024-01-10T02:49:31;4.00;;;3.10;;
24277;SDS011;12394;42.692;23.314;2024-01-10T02:51:57;13.30;;;3.67;;
24277;SDS011;12394;42.692;23.314;2024-01-10T02:54:22;7.93;;;3.53;;
24277;SDS011;12394;42.692;23.314;2024-01-10T02:56:48;3.40;;;3.00;;
24277;SDS011;12394;42.692;23.314;2024-01-10T02:59:13;4.57;;;3.40;;
24277;SDS011;12394;42.692;23.314;2024-01-10T03:01:39;4.90;;;2.53;;
24277;SDS011;12394;42.692;23.314;2024-01-10T03:04:04;4.60;;;2.83;;
24277;SDS011;12394;42.692;23.314;2024-01-10T03:06:30;5.23;;;2.83;;
24277;SDS011;12394;42.692;23.314;2024-01-10T03:08:55;4.53;;;3.10;;
24277;SDS011;12394;42.692;23.314;2024-01-10T03:11:21;6.67;;;3.53;;
24277;SDS011;12394;42.692;23.314;2024-01-10T03:13:47;6.10;;;3.00;;
24277;SDS011;12394;42.692;23.314;2024-01-10T03:16:13;4.13;;;3.10;;
24277;SDS011;12394;42.692;23.314;2024-01-10T03:18:39;8.20;;;3.20;;
24277;SDS011;12394;42.692;23.314;2024-01-10T03:21:05;4.20;;;2.87;;
24277;SDS011;12394;42.692;23.314;2024-01-10T03:23:30;4.93;;;2.83;;
24277;SDS011;12394;42.692;23.314;2024-01-10T03:25:56;3.77;;;2.93;;
24277;SDS011;12394;42.692;23.314;2024-01-10T03:28:22;4.67;;;2.87;;
24277;SDS011;12394;42.692;23.314;2024-01-10T03:30:48;5.07;;;3.20;;
24277;SDS011;12394;42.692;23.314;2024-01-10T03:33:14;4.23;;;3.20;;
24277;SDS011;12394;42.692;23.314;2024-01-10T03:35:40;4.37;;;3.17;;
24277;SDS011;12394;42.692;23.314;2024-01-10T03:38:06;10.23;;;3.03;;
24277;SDS011;12394;42.692;23.314;2024-01-10T03:40:32;5.13;;;3.03;;
24277;SDS011;12394;42.692;23.314;2024-01-10T03:42:57;5.23;;;3.40;;
24277;SDS011;12394;42.692;23.314;2024-01-10T03:45:23;4.90;;;3.00;;
24277;SDS011;12394;42.692;23.314;2024-01-10T03:47:49;6.47;;;3.53;;
24277;SDS011;12394;42.692;23.314;2024-01-10T03:50:19;6.10;;;3.30;;
24277;SDS011;12394;42.692;23.314;2024-01-10T03:52:45;5.43;;;2.97;;
24277;SDS011;12394;42.692;23.314;2024-01-10T03:55:11;5.03;;;3.03;;
24277;SDS011;12394;42.692;23.314;2024-01-10T03:57:38;7.87;;;3.80;;
24277;SDS011;12394;42.692;23.314;2024-01-10T04:00:04;8.07;;;4.30;;
24277;SDS011;12394;42.692;23.314;2024-01-10T04:02:31;8.83;;;3.97;;
24277;SDS011;12394;42.692;23.314;2024-01-10T04:04:57;3.77;;;2.93;;
24277;SDS011;12394;42.692;23.314;2024-01-10T04:07:23;5.10;;;3.13;;
24277;SDS011;12394;42.692;23.314;2024-01-10T04:09:48;7.37;;;3.37;;
24277;SDS011;12394;42.692;23.314;2024-01-10T04:12:14;10.23;;;3.00;;
24277;SDS011;12394;42.692;23.314;2024-01-10T04:14:40;5.33;;;2.63;;
24277;SDS011;12394;42.692;23.314;2024-01-10T04:17:05;4.30;;;3.13;;
24277;SDS011;12394;42.692;23.314;2024-01-10T04:19:32;5.60;;;3.40;;
24277;SDS011;12394;42.692;23.314;2024-01-10T04:21:58;7.47;;;3.07;;
24277;SDS011;12394;42.692;23.314;2024-01-10T04:24:24;5.57;;;3.03;;
24277;SDS011;12394;42.692;23.314;2024-01-10T04:26:49;4.33;;;3.03;;
24277;SDS011;12394;42.692;23.314;2024-01-10T04:29:15;7.37;;;3.17;;
24277;SDS011;12394;42.692;23.314;2024-01-10T04:31:41;4.83;;;2.97;;
24277;SDS011;12394;42.692;23.314;2024-01-10T04:34:06;6.47;;;3.30;;
24277;SDS011;12394;42.692;23.314;2024-01-10T04:36:32;10.80;;;5.10;;
24277;SDS011;12394;42.692;23.314;2024-01-10T04:38:57;10.93;;;6.13;;
24277;SDS011;12394;42.692;23.314;2024-01-10T04:41:23;13.33;;;5.93;;
24277;SDS011;12394;42.692;23.314;2024-01-10T04:43:49;11.77;;;6.27;;
24277;SDS011;12394;42.692;23.314;2024-01-10T04:46:14;10.23;;;4.47;;
24277;SDS011;12394;42.692;23.314;2024-01-10T04:48:39;14.57;;;5.17;;
24277;SDS011;12394;42.692;23.314;2024-01-10T04:51:05;9.13;;;4.90;;
24277;SDS011;12394;42.692;23.314;2024-01-10T04:53:30;7.07;;;3.83;;
24277;SDS011;12394;42.692;23.314;2024-01-10T04:55:56;9.90;;;4.40;;
24277;SDS011;12394;42.692;23.314;2024-01-10T04:58:21;13.13;;;3.83;;
24277;SDS011;12394;42.692;23.314;2024-01-10T05:00:47;4.23;;;2.80;;
24277;SDS011;12394;42.692;23.314;2024-01-10T05:03:12;8.87;;;3.00;;
24277;SDS011;12394;42.692;23.314;2024-01-10T05:05:38;5.90;;;3.53;;
24277;SDS011;12394;42.692;23.314;2024-01-10T05:08:04;5.77;;;3.70;;
24277;SDS011;12394;42.692;23.314;2024-01-10T05:10:30;6.03;;;3.43;;
24277;SDS011;12394;42.692;23.314;2024-01-10T05:12:55;7.70;;;4.30;;
24277;SDS011;12394;42.692;23.314;2024-01-10T05:15:20;13.00;;;4.47;;
24277;SDS011;12394;42.692;23.314;2024-01-10T05:17:46;10.67;;;4.33;;
24277;SDS011;12394;42.692;23.314;2024-01-10T05:20:11;11.40;;;3.67;;
24277;SDS011;12394;42.692;23.314;2024-01-10T05:22:39;10.03;;;4.50;;
24277;SDS011;12394;42.692;23.314;2024-01-10T05:25:05;7.93;;;4.13;;
24277;SDS011;12394;42.692;23.314;2024-01-10T05:27:31;6.17;;;3.73;;
24277;SDS011;12394;42.692;23.314;2024-01-10T05:29:56;7.60;;;3.67;;
24277;SDS011;12394;42.692;23.314;2024-01-10T05:32:22;5.70;;;3.17;;
24277;SDS011;12394;42.692;23.314;2024-01-10T05:34:47;4.93;;;3.57;;
24277;SDS011;12394;42.692;23.314;2024-01-10T05:37:13;5.33;;;2.70;;
24277;SDS011;12394;42.692;23.314;2024-01-10T05:39:38;8.80;;;3.73;;
24277;SDS011;12394;42.692;23.314;2024-01-10T05:42:04;11.40;;;3.50;;
24277;SDS011;12394;42.692;23.314;2024-01-10T05:44:30;5.40;;;2.97;;
24277;SDS011;12394;42.692;23.314;2024-01-10T05:46:55;7.00;;;3.00;;
24277;SDS011;12394;42.692;23.314;2024-01-10T05:49:24;8.37;;;3.10;;
24277;SDS011;12394;42.692;23.314;2024-01-10T05:51:50;5.50;;;2.50;;
24277;SDS011;12394;42.692;23.314;2024-01-10T05:54:16;4.83;;;3.13;;
24277;SDS011;12394;42.692;23.314;2024-01-10T05:56:43;13.97;;;2.87;;
24277;SDS011;12394;42.692;23.314;2024-01-10T05:59:08;13.47;;;4.40;;
24277;SDS011;12394;42.692;23.314;2024-01-10T06:01:36;7.60;;;2.97;;
24277;SDS011;12394;42.692;23.314;2024-01-10T06:04:03;8.63;;;2.83;;
24277;SDS011;12394;42.692;23.314;2024-01-10T06:06:29;9.00;;;2.80;;
24277;SDS011;12394;42.692;23.314;2024-01-10T06:08:55;6.40;;;3.13;;
24277;SDS011;12394;42.692;23.314;2024-01-10T06:11:21;7.30;;;3.00;;
24277;SDS011;12394;42.692;23.314;2024-01-10T06:13:46;10.77;;;3.20;;
24277;SDS011;12394;42.692;23.314;2024-01-10T06:16:12;5.27;;;3.40;;
24277;SDS011;12394;42.692;23.314;2024-01-10T06:18:38;4.40;;;3.30;;
24277;SDS011;12394;42.692;23.314;2024-01-10T06:21:04;7.73;;;3.10;;
24277;SDS011;12394;42.692;23.314;2024-01-10T06:23:30;5.23;;;3.23;;
24277;SDS011;12394;42.692;23.314;2024-01-10T06:25:55;6.17;;;3.37;;
24277;SDS011;12394;42.692;23.314;2024-01-10T06:28:21;15.37;;;3.50;;
24277;SDS011;12394;42.692;23.314;2024-01-10T06:30:48;8.83;;;4.20;;
24277;SDS011;12394;42.692;23.314;2024-01-10T06:33:14;10.97;;;3.83;;
24277;SDS011;12394;42.692;23.314;2024-01-10T06:35:40;6.93;;;3.43;;
24277;SDS011;12394;42.692;23.314;2024-01-10T06:38:08;7.17;;;4.57;;
24277;SDS011;12394;42.692;23.314;2024-01-10T06:40:34;8.03;;;4.40;;
24277;SDS011;12394;42.692;23.314;2024-01-10T06:43:00;8.40;;;4.20;;
24277;SDS011;12394;42.692;23.314;2024-01-10T06:45:26;11.10;;;4.50;;
24277;SDS011;12394;42.692;23.314;2024-01-10T06:47:51;5.90;;;3.67;;
24277;SDS011;12394;42.692;23.314;2024-01-10T06:50:17;8.23;;;4.37;;
24277;SDS011;12394;42.692;23.314;2024-01-10T06:52:44;10.63;;;5.13;;
24277;SDS011;12394;42.692;23.314;2024-01-10T06:55:09;11.73;;;5.57;;
24277;SDS011;12394;42.692;23.314;2024-01-10T06:57:35;22.27;;;9.33;;
24277;SDS011;12394;42.692;23.314;2024-01-10T07:00:00;17.23;;;6.77;;
24277;SDS011;12394;42.692;23.314;2024-01-10T07:02:28;10.30;;;5.13;;
24277;SDS011;12394;42.692;23.314;2024-01-10T07:04:54;14.57;;;4.70;;
24277;SDS011;12394;42.692;23.314;2024-01-10T07:07:19;11.53;;;5.77;;
24277;SDS011;12394;42.692;23.314;2024-01-10T07:09:45;8.10;;;5.10;;
24277;SDS011;12394;42.692;23.314;2024-01-10T07:12:10;18.67;;;6.30;;
24277;SDS011;12394;42.692;23.314;2024-01-10T07:14:36;13.63;;;5.67;;
24277;SDS011;12394;42.692;23.314;2024-01-10T07:17:01;15.07;;;5.97;;
24277;SDS011;12394;42.692;23.314;2024-01-10T07:19:27;9.47;;;4.70;;
24277;SDS011;12394;42.692;23.314;2024-01-10T07:21:52;9.80;;;4.97;;
24277;SDS011;12394;42.692;23.314;2024-01-10T07:24:20;16.97;;;5.30;;
24277;SDS011;12394;42.692;23.314;2024-01-10T07:26:46;12.63;;;5.37;;
24277;SDS011;12394;42.692;23.314;2024-01-10T07:29:11;7.67;;;4.63;;
24277;SDS011;12394;42.692;23.314;2024-01-10T07:31:37;5.80;;;3.43;;
24277;SDS011;12394;42.692;23.314;2024-01-10T07:34:02;10.47;;;5.23;;
24277;SDS011;12394;42.692;23.314;2024-01-10T07:36:32;8.27;;;4.00;;
24277;SDS011;12394;42.692;23.314;2024-01-10T07:39:00;16.30;;;3.97;;
24277;SDS011;12394;42.692;23.314;2024-01-10T07:41:26;12.50;;;3.50;;
24277;SDS011;12394;42.692;23.314;2024-01-10T07:43:51;9.47;;;3.13;;
24277;SDS011;12394;42.692;23.314;2024-01-10T07:46:17;13.13;;;3.77;;
24277;SDS011;12394;42.692;23.314;2024-01-10T07:48:42;7.90;;;4.00;;
24277;SDS011;12394;42.692;23.314;2024-01-10T07:51:08;8.37;;;3.83;;
24277;SDS011;12394;42.692;23.314;2024-01-10T07:53:33;9.40;;;4.00;;
24277;SDS011;12394;42.692;23.314;2024-01-10T07:55:59;8.07;;;3.57;;
24277;SDS011;12394;42.692;23.314;2024-01-10T07:58:25;11.73;;;3.77;;
24277;SDS011;12394;42.692;23.314;2024-01-10T08:00:50;12.90;;;4.40;;
24277;SDS011;12394;42.692;23.314;2024-01-10T08:03:16;9.33;;;3.80;;
24277;SDS011;12394;42.692;23.314;2024-01-10T08:05:42;6.40;;;2.77;;
24277;SDS011;12394;42.692;23.314;2024-01-10T08:08:07;3.80;;;2.97;;
24277;SDS011;12394;42.692;23.314;2024-01-10T08:10:34;4.73;;;2.80;;
24277;SDS011;12394;42.692;23.314;2024-01-10T08:12:59;17.63;;;3.93;;
24277;SDS011;12394;42.692;23.314;2024-01-10T08:15:25;5.87;;;3.80;;
24277;SDS011;12394;42.692;23.314;2024-01-10T08:17:51;7.67;;;4.40;;
24277;SDS011;12394;42.692;23.314;2024-01-10T08:20:16;9.57;;;4.47;;
24277;SDS011;12394;42.692;23.314;2024-01-10T08:22:46;13.30;;;5.30;;
24277;SDS011;12394;42.692;23.314;2024-01-10T08:25:12;12.37;;;6.03;;
24277;SDS011;12394;42.692;23.314;2024-01-10T08:27:40;12.90;;;6.43;;
24277;SDS011;12394;42.692;23.314;2024-01-10T08:30:06;11.27;;;5.33;;
24277;SDS011;12394;42.692;23.314;2024-01-10T08:32:34;11.30;;;5.17;;
24277;SDS011;12394;42.692;23.314;2024-01-10T08:35:00;13.27;;;4.97;;
24277;SDS011;12394;42.692;23.314;2024-01-10T08:37:26;9.33;;;4.03;;
24277;SDS011;12394;42.692;23.314;2024-01-10T08:39:51;9.70;;;5.77;;
24277;SDS011;12394;42.692;23.314;2024-01-10T08:42:18;17.50;;;4.83;;
24277;SDS011;12394;42.692;23.314;2024-01-10T08:44:43;8.20;;;4.30;;
24277;SDS011;12394;42.692;23.314;2024-01-10T08:47:09;6.03;;;3.80;;
24277;SDS011;12394;42.692;23.314;2024-01-10T08:49:35;10.93;;;4.83;;
24277;SDS011;12394;42.692;23.314;2024-01-10T08:52:01;13.53;;;4.77;;
24277;SDS011;12394;42.692;23.314;2024-01-10T08:54:27;9.30;;;5.30;;
24277;SDS011;12394;42.692;23.314;2024-01-10T08:56:52;11.80;;;8.47;;
24277;SDS011;12394;42.692;23.314;2024-01-10T08:59:18;7.77;;;3.70;;
24277;SDS011;12394;42.692;23.314;2024-01-10T09:01:43;18.87;;;11.73;;
24277;SDS011;12394;42.692;23.314;2024-01-10T09:04:09;8.60;;;4.27;;
24277;SDS011;12394;42.692;23.314;2024-01-10T09:06:34;6.97;;;4.50;;
24277;SDS011;12394;42.692;23.314;2024-01-10T09:09:01;12.90;;;4.93;;
24277;SDS011;12394;42.692;23.314;2024-01-10T09:11:26;9.50;;;4.90;;
24277;SDS011;12394;42.692;23.314;2024-01-10T09:13:52;9.80;;;4.50;;
24277;SDS011;12394;42.692;23.314;2024-01-10T09:16:17;9.43;;;4.03;;
24277;SDS011;12394;42.692;23.314;2024-01-10T09:18:45;11.63;;;4.70;;
24277;SDS011;12394;42.692;23.314;2024-01-10T09:21:11;8.30;;;4.40;;
24277;SDS011;12394;42.692;23.314;2024-01-10T09:23:37;7.80;;;4.73;;
24277;SDS011;12394;42.692;23.314;2024-01-10T09:26:03;7.53;;;5.10;;
24277;SDS011;12394;42.692;23.314;2024-01-10T09:28:28;11.57;;;5.33;;
24277;SDS011;12394;42.692;23.314;2024-01-10T09:30:54;21.07;;;6.60;;
24277;SDS011;12394;42.692;23.314;2024-01-10T09:33:19;9.60;;;5.70;;
24277;SDS011;12394;42.692;23.314;2024-01-10T09:35:46;9.53;;;5.50;;
24277;SDS011;12394;42.692;23.314;2024-01-10T09:38:12;10.37;;;5.40;;
24277;SDS011;12394;42.692;23.314;2024-01-10T09:40:37;14.10;;;5.50;;
24277;SDS011;12394;42.692;23.314;2024-01-10T09:43:04;12.00;;;6.23;;
24277;SDS011;12394;42.692;23.314;2024-01-10T09:45:34;12.63;;;5.97;;
24277;SDS011;12394;42.692;23.314;2024-01-10T09:48:01;8.73;;;6.33;;
24277;SDS011;12394;42.692;23.314;2024-01-10T09:50:27;11.03;;;5.20;;
24277;SDS011;12394;42.692;23.314;2024-01-10T09:52:53;11.77;;;6.10;;
24277;SDS011;12394;42.692;23.314;2024-01-10T09:55:28;8.90;;;5.83;;
24277;SDS011;12394;42.692;23.314;2024-01-10T09:57:59;7.70;;;5.87;;
24277;SDS011;12394;42.692;23.314;2024-01-10T10:00:29;16.33;;;6.97;;
24277;SDS011;12394;42.692;23.314;2024-01-10T10:02:55;8.43;;;5.63;;
24277;SDS011;12394;42.692;23.314;2024-01-10T10:05:22;9.87;;;6.07;;
24277;SDS011;12394;42.692;23.314;2024-01-10T10:07:49;13.97;;;6.53;;
24277;SDS011;12394;42.692;23.314;2024-01-10T10:10:17;12.03;;;6.77;;
24277;SDS011;12394;42.692;23.314;2024-01-10T10:12:46;13.07;;;6.90;;
24277;SDS011;12394;42.692;23.314;2024-01-10T10:15:20;10.10;;;6.87;;
24277;SDS011;12394;42.692;23.314;2024-01-10T10:17:47;12.60;;;7.40;;
24277;SDS011;12394;42.692;23.314;2024-01-10T10:20:14;12.90;;;7.43;;
24277;SDS011;12394;42.692;23.314;2024-01-10T10:23:02;24.43;;;8.53;;
24277;SDS011;12394;42.692;23.314;2024-01-10T10:25:34;10.27;;;7.07;;
24277;SDS011;12394;42.692;23.314;2024-01-10T10:28:02;15.13;;;7.03;;
24277;SDS011;12394;42.692;23.314;2024-01-10T10:30:28;21.73;;;7.70;;
24277;SDS011;12394;42.692;23.314;2024-01-10T10:32:55;8.17;;;5.73;;
24277;SDS011;12394;42.692;23.314;2024-01-10T10:35:21;9.77;;;5.73;;
24277;SDS011;12394;42.692;23.314;2024-01-10T10:37:51;9.20;;;6.30;;
24277;SDS011;12394;42.692;23.314;2024-01-10T10:40:17;6.50;;;5.17;;
24277;SDS011;12394;42.692;23.314;2024-01-10T10:42:44;12.80;;;6.07;;
24277;SDS011;12394;42.692;23.314;2024-01-10T10:45:15;17.23;;;5.97;;
24277;SDS011;12394;42.692;23.314;2024-01-10T10:47:50;12.17;;;5.57;;
24277;SDS011;12394;42.692;23.314;2024-01-10T10:50:27;7.37;;;5.37;;
24277;SDS011;12394;42.692;23.314;2024-01-10T10:52:55;9.33;;;5.57;;
24277;SDS011;12394;42.692;23.314;2024-01-10T10:55:22;12.70;;;5.77;;
24277;SDS011;12394;42.692;23.314;2024-01-10T10:57:48;12.53;;;5.70;;
24277;SDS011;12394;42.692;23.314;2024-01-10T11:00:19;11.97;;;6.30;;
24277;SDS011;12394;42.692;23.314;2024-01-10T11:02:51;10.03;;;6.17;;
24277;SDS011;12394;42.692;23.314;2024-01-10T11:05:18;10.57;;;6.87;;
24277;SDS011;12394;42.692;23.314;2024-01-10T11:07:45;14.33;;;7.90;;
24277;SDS011;12394;42.692;23.314;2024-01-10T11:10:16;19.47;;;7.43;;
24277;SDS011;12394;42.692;23.314;2024-01-10T11:13:03;11.90;;;6.97;;
24277;SDS011;12394;42.692;23.314;2024-01-10T11:23:56;16.17;;;9.03;;
24277;SDS011;12394;42.692;23.314;2024-01-10T11:26:24;14.53;;;9.07;;
24277;SDS011;12394;42.692;23.314;2024-01-10T11:28:50;14.73;;;8.83;;
24277;SDS011;12394;42.692;23.314;2024-01-10T11:31:16;12.67;;;8.00;;
24277;SDS011;12394;42.692;23.314;2024-01-10T11:33:54;14.87;;;8.87;;
24277;SDS011;12394;42.692;23.314;2024-01-10T11:36:25;22.37;;;9.80;;
24277;SDS011;12394;42.692;23.314;2024-01-10T11:41:24;14.67;;;8.00;;
24277;SDS011;12394;42.692;23.314;2024-01-10T11:46:52;13.93;;;7.53;;
24277;SDS011;12394;42.692;23.314;2024-01-10T11:49:20;17.77;;;9.93;;
24277;SDS011;12394;42.692;23.314;2024-01-10T11:51:47;13.43;;;8.83;;
24277;SDS011;12394;42.692;23.314;2024-01-10T11:59:47;17.60;;;8.93;;
24277;SDS011;12394;42.692;23.314;2024-01-10T12:02:18;18.50;;;8.97;;
24277;SDS011;12394;42.692;23.314;2024-01-10T12:04:45;16.97;;;9.10;;
24277;SDS011;12394;42.692;23.314;2024-01-10T12:07:11;17.67;;;8.90;;
24277;SDS011;12394;42.692;23.314;2024-01-10T12:09:37;17.80;;;9.93;;
24277;SDS011;12394;42.692;23.314;2024-01-10T12:12:03;22.70;;;10.83;;
24277;SDS011;12394;42.692;23.314;2024-01-10T12:14:29;17.33;;;9.30;;
24277;SDS011;12394;42.692;23.314;2024-01-10T12:16:59;15.67;;;9.43;;
24277;SDS011;12394;42.692;23.314;2024-01-10T12:19:25;18.53;;;10.00;;
24277;SDS011;12394;42.692;23.314;2024-01-10T12:21:53;15.63;;;9.20;;
24277;SDS011;12394;42.692;23.314;2024-01-10T12:24:19;16.63;;;9.27;;
24277;SDS011;12394;42.692;23.314;2024-01-10T12:26:46;24.73;;;10.47;;
24277;SDS011;12394;42.692;23.314;2024-01-10T12:29:12;17.23;;;9.80;;
24277;SDS011;12394;42.692;23.314;2024-01-10T12:31:38;29.77;;;17.53;;
24277;SDS011;12394;42.692;23.314;2024-01-10T12:34:06;37.43;;;24.20;;
24277;SDS011;12394;42.692;23.314;2024-01-10T12:36:34;17.97;;;11.07;;
24277;SDS011;12394;42.692;23.314;2024-01-10T12:38:59;18.83;;;10.20;;
24277;SDS011;12394;42.692;23.314;2024-01-10T12:41:25;19.37;;;9.83;;
24277;SDS011;12394;42.692;23.314;2024-01-10T12:43:54;19.70;;;12.57;;
24277;SDS011;12394;42.692;23.314;2024-01-10T12:46:21;22.53;;;11.17;;
24277;SDS011;12394;42.692;23.314;2024-01-10T12:51:32;21.50;;;10.47;;
24277;SDS011;12394;42.692;23.314;2024-01-10T12:54:01;17.87;;;10.43;;
24277;SDS011;12394;42.692;23.314;2024-01-10T12:56:29;20.43;;;9.93;;
24277;SDS011;12394;42.692;23.314;2024-01-10T12:58:55;23.03;;;12.97;;
24277;SDS011;12394;42.692;23.314;2024-01-10T13:01:22;27.80;;;12.67;;
24277;SDS011;12394;42.692;23.314;2024-01-10T13:03:50;19.63;;;10.33;;
24277;SDS011;12394;42.692;23.314;2024-01-10T13:06:16;19.80;;;10.17;;
24277;SDS011;12394;42.692;23.314;2024-01-10T13:08:43;19.60;;;10.53;;
24277;SDS011;12394;42.692;23.314;2024-01-10T13:11:09;17.47;;;9.57;;
24277;SDS011;12394;42.692;23.314;2024-01-10T13:13:36;27.80;;;10.50;;
24277;SDS011;12394;42.692;23.314;2024-01-10T13:16:01;20.20;;;10.23;;
24277;SDS011;12394;42.692;23.314;2024-01-10T13:18:27;19.83;;;10.33;;
24277;SDS011;12394;42.692;23.314;2024-01-10T13:20:54;20.20;;;10.40;;
24277;SDS011;12394;42.692;23.314;2024-01-10T13:23:20;23.10;;;11.07;;
24277;SDS011;12394;42.692;23.314;2024-01-10T13:25:47;16.77;;;10.23;;
24277;SDS011;12394;42.692;23.314;2024-01-10T13:28:13;17.43;;;9.93;;
24277;SDS011;12394;42.692;23.314;2024-01-10T13:30:39;23.20;;;11.17;;
24277;SDS011;12394;42.692;23.314;2024-01-10T13:33:08;20.17;;;10.63;;
24277;SDS011;12394;42.692;23.314;2024-01-10T13:35:35;20.80;;;11.00;;
24277;SDS011;12394;42.692;23.314;2024-01-10T13:38:04;19.60;;;10.37;;
24277;SDS011;12394;42.692;23.314;2024-01-10T13:40:30;36.63;;;17.33;;
24277;SDS011;12394;42.692;23.314;2024-01-10T13:42:58;18.97;;;9.37;;
24277;SDS011;12394;42.692;23.314;2024-01-10T13:45:27;18.03;;;10.37;;
24277;SDS011;12394;42.692;23.314;2024-01-10T13:47:53;16.63;;;9.77;;
24277;SDS011;12394;42.692;23.314;2024-01-10T13:50:19;16.23;;;10.37;;
24277;SDS011;12394;42.692;23.314;2024-01-10T13:52:44;18.93;;;10.10;;
24277;SDS011;12394;42.692;23.314;2024-01-10T13:55:10;21.17;;;10.83;;
24277;SDS011;12394;42.692;23.314;2024-01-10T13:57:35;21.13;;;10.63;;
24277;SDS011;12394;42.692;23.314;2024-01-10T14:00:01;18.80;;;9.87;;
24277;SDS011;12394;42.692;23.314;2024-01-10T14:02:28;22.27;;;9.20;;
24277;SDS011;12394;42.692;23.314;2024-01-10T14:04:54;17.70;;;10.07;;
24277;SDS011;12394;42.692;23.314;2024-01-10T14:07:19;15.17;;;9.63;;
24277;SDS011;12394;42.692;23.314;2024-01-10T14:09:45;18.03;;;11.33;;
24277;SDS011;12394;42.692;23.314;2024-01-10T14:12:11;22.63;;;11.00;;
24277;SDS011;12394;42.692;23.314;2024-01-10T14:14:37;22.07;;;10.30;;
24277;SDS011;12394;42.692;23.314;2024-01-10T14:17:03;15.77;;;9.80;;
24277;SDS011;12394;42.692;23.314;2024-01-10T14:19:29;16.43;;;9.50;;
24277;SDS011;12394;42.692;23.314;2024-01-10T14:21:54;32.87;;;10.07;;
24277;SDS011;12394;42.692;23.314;2024-01-10T14:24:20;22.57;;;11.47;;
24277;SDS011;12394;42.692;23.314;2024-01-10T14:26:45;19.97;;;10.27;;
24277;SDS011;12394;42.692;23.314;2024-01-10T14:29:12;21.10;;;11.83;;
24277;SDS011;12394;42.692;23.314;2024-01-10T14:31:37;19.63;;;10.77;;
24277;SDS011;12394;42.692;23.314;2024-01-10T14:34:05;18.07;;;11.40;;
24277;SDS011;12394;42.692;23.314;2024-01-10T14:36:31;23.37;;;11.87;;
24277;SDS011;12394;42.692;23.314;2024-01-10T14:38:57;20.77;;;10.43;;
24277;SDS011;12394;42.692;23.314;2024-01-10T14:41:22;22.00;;;11.43;;
24277;SDS011;12394;42.692;23.314;2024-01-10T14:43:48;19.13;;;10.53;;